Time;durP1;ratioP1;P1;durP2;ratioP2;P2;SDS_P1;SDS_P2;PMS_P1;PMS_P2;Temp;Humidity;BMP_temperature;BMP_pressure;BME280_temperature;BME280_humidity;BME280_pressure;Samples;Min_cycle;Max_cycle;Signal;HPM_P1;HPM_P2
2021/08/12 00:01:38;;;;;;;2.47;2.20;;;17.10;87.30;;;;;;4973023;28;20157;-75
2021/08/12 00:04:05;;;;;;;2.40;2.30;;;17.10;85.40;;;;;;4974496;28;20030;-75
2021/08/12 00:06:32;;;;;;;2.53;2.35;;;17.10;85.50;;;;;;4973051;28;20023;-75
2021/08/12 00:09:00;;;;;;;2.63;2.45;;;17.20;86.00;;;;;;4974552;28;20487;-74
2021/08/12 00:11:27;;;;;;;2.33;2.20;;;17.10;84.70;;;;;;4972754;28;20019;-74
2021/08/12 00:13:55;;;;;;;2.53;2.33;;;17.20;84.70;;;;;;4972892;28;20118;-73
2021/08/12 00:16:22;;;;;;;2.40;2.20;;;17.40;85.40;;;;;;4973007;28;20479;-73
2021/08/12 00:18:55;;;;;;;2.08;1.98;;;17.30;83.60;;;;;;4974349;28;20033;-75
2021/08/12 00:21:24;;;;;;;2.33;2.10;;;17.40;83.70;;;;;;4972929;28;20066;-74
2021/08/12 00:23:52;;;;;;;1.98;1.90;;;17.30;81.60;;;;;;4974278;28;20031;-74
2021/08/12 00:26:20;;;;;;;2.50;2.30;;;17.30;83.50;;;;;;4974250;28;20487;-74
2021/08/12 00:28:47;;;;;;;2.20;2.10;;;17.30;82.90;;;;;;4978154;28;20477;-74
2021/08/12 00:31:15;;;;;;;2.13;2.00;;;17.50;82.90;;;;;;4978272;28;20019;-74
2021/08/12 00:33:44;;;;;;;2.20;2.10;;;17.20;81.50;;;;;;4976449;28;20086;-74
2021/08/12 00:36:11;;;;;;;2.10;2.00;;;17.40;82.40;;;;;;4976715;28;20018;-73
2021/08/12 00:38:38;;;;;;;2.08;1.90;;;17.30;80.50;;;;;;4978356;28;20026;-74
2021/08/12 00:41:06;;;;;;;4.22;2.20;;;17.30;81.10;;;;;;4977825;28;20035;-74
2021/08/12 00:43:33;;;;;;;1.98;1.88;;;17.40;81.30;;;;;;4977977;28;20047;-73
2021/08/12 00:46:00;;;;;;;1.98;1.90;;;17.50;80.50;;;;;;4976778;28;20023;-70
2021/08/12 00:48:28;;;;;;;2.10;1.80;;;17.60;80.20;;;;;;4976444;28;20410;-72
2021/08/12 00:50:55;;;;;;;2.25;2.00;;;17.60;80.00;;;;;;4977280;28;20023;-73
2021/08/12 00:53:23;;;;;;;2.28;2.00;;;17.60;79.40;;;;;;4977237;28;20025;-75
2021/08/12 00:55:51;;;;;;;1.85;1.70;;;17.70;80.60;;;;;;4977258;28;20094;-73
2021/08/12 00:58:19;;;;;;;1.60;1.50;;;17.80;79.60;;;;;;4977348;28;20058;-74
2021/08/12 01:00:57;;;;;;;2.00;1.90;;;17.70;79.00;;;;;;4977252;28;20476;-73
2021/08/12 01:03:25;;;;;;;1.55;1.55;;;17.80;78.50;;;;;;4977120;28;20137;-74
2021/08/12 01:06:00;;;;;;;1.80;1.70;;;17.90;79.70;;;;;;4977157;28;20038;-73
2021/08/12 01:08:58;;;;;;;1.55;1.55;;;18.00;79.20;;;;;;4975670;28;20050;-74
2021/08/12 01:11:48;;;;;;;1.90;1.80;;;17.80;78.30;;;;;;4976824;28;20026;-72
2021/08/12 01:14:51;;;;;;;1.70;1.60;;;17.80;79.40;;;;;;4977005;28;20033;-73
2021/08/12 01:17:23;;;;;;;1.98;1.60;;;17.90;79.30;;;;;;4975609;28;20030;-73
2021/08/12 01:20:09;;;;;;;1.70;1.60;;;17.80;78.60;;;;;;4977108;28;20110;-74
2021/08/12 01:22:46;;;;;;;2.92;1.75;;;18.00;79.50;;;;;;4975465;28;20570;-73
2021/08/12 01:25:30;;;;;;;2.15;2.05;;;18.10;78.10;;;;;;4975492;28;20023;-73
2021/08/12 01:28:12;;;;;;;2.10;1.98;;;18.30;79.00;;;;;;4976698;28;20172;-74
2021/08/12 01:31:11;;;;;;;1.83;1.67;;;18.40;81.40;;;;;;4975382;28;20031;-73
2021/08/12 01:33:44;;;;;;;1.90;1.80;;;18.60;78.00;;;;;;4976626;28;20098;-73
2021/08/12 01:36:15;;;;;;;1.70;1.60;;;18.80;77.20;;;;;;4976600;28;20067;-74
2021/08/12 01:38:44;;;;;;;1.70;1.60;;;18.80;76.40;;;;;;4975975;28;20027;-73
2021/08/12 01:41:11;;;;;;;1.92;1.73;;;18.90;76.90;;;;;;4976538;28;20118;-74
2021/08/12 01:43:40;;;;;;;1.70;1.60;;;19.00;76.90;;;;;;4975043;28;20033;-72
2021/08/12 01:46:09;;;;;;;2.15;1.70;;;18.90;74.80;;;;;;4976222;28;20549;-73
2021/08/12 01:48:37;;;;;;;2.83;2.10;;;18.90;76.50;;;;;;4975073;28;20109;-74
2021/08/12 01:51:05;;;;;;;3.25;2.00;;;19.00;76.50;;;;;;4974965;28;20392;-73
2021/08/12 01:53:33;;;;;;;2.10;2.00;;;19.00;74.40;;;;;;4976213;28;20042;-73
2021/08/12 01:56:02;;;;;;;2.08;1.98;;;18.90;75.40;;;;;;4976269;28;20045;-73
2021/08/12 01:58:31;;;;;;;2.00;1.90;;;18.90;75.30;;;;;;4976119;28;20023;-73
2021/08/12 02:01:00;;;;;;;2.63;2.42;;;18.90;75.20;;;;;;4974802;28;20026;-76
2021/08/12 02:03:28;;;;;;;2.13;2.00;;;18.90;74.30;;;;;;4976138;28;20050;-72
2021/08/12 02:05:57;;;;;;;2.13;2.00;;;18.90;74.00;;;;;;4976080;28;20368;-76
2021/08/12 02:08:25;;;;;;;2.38;2.20;;;19.00;74.70;;;;;;4975882;28;20034;-75
2021/08/12 02:10:53;;;;;;;2.42;2.33;;;19.10;73.80;;;;;;4975984;28;20027;-75
2021/08/12 02:13:24;;;;;;;2.05;1.95;;;19.30;75.40;;;;;;4975747;28;20110;-73
2021/08/12 02:15:52;;;;;;;1.90;1.80;;;19.40;73.80;;;;;;4974698;28;20029;-74
2021/08/12 02:18:20;;;;;;;2.38;2.17;;;19.40;73.40;;;;;;4975871;28;20019;-74
2021/08/12 02:20:59;;;;;;;2.42;2.28;;;19.40;74.00;;;;;;4975833;28;20019;-74
2021/08/12 02:23:34;;;;;;;2.10;2.00;;;19.30;73.30;;;;;;4975810;28;20089;-75
2021/08/12 02:26:30;;;;;;;2.83;2.45;;;19.20;73.60;;;;;;4975772;28;20023;-73
2021/08/12 02:28:57;;;;;;;2.50;2.30;;;19.30;75.10;;;;;;4972544;28;20035;-75
2021/08/12 02:31:27;;;;;;;2.00;1.90;;;19.40;74.70;;;;;;4974361;28;20427;-74
2021/08/12 02:33:55;;;;;;;2.00;1.90;;;19.40;73.60;;;;;;4974316;28;20160;-74
2021/08/12 02:36:23;;;;;;;2.10;2.00;;;19.50;73.10;;;;;;4975671;28;20050;-74
2021/08/12 02:38:52;;;;;;;2.38;2.28;;;19.60;73.90;;;;;;4975544;28;20034;-72
2021/08/12 02:41:21;;;;;;;2.22;2.10;;;19.70;72.90;;;;;;4975466;28;20050;-74
2021/08/12 02:43:52;;;;;;;2.40;2.30;;;19.60;72.80;;;;;;4975350;28;20435;-76
2021/08/12 02:46:27;;;;;;;1.83;1.73;;;19.70;73.20;;;;;;4975257;28;20023;-74
2021/08/12 02:48:56;;;;;;;2.65;1.80;;;19.90;72.00;;;;;;4973953;28;20023;-77
2021/08/12 02:51:28;;;;;;;2.42;2.22;;;20.00;72.30;;;;;;4974302;28;20511;-75
2021/08/12 02:53:56;;;;;;;2.55;2.45;;;20.20;72.20;;;;;;4974239;28;20118;-74
2021/08/12 02:56:25;;;;;;;3.28;2.20;;;20.10;71.70;;;;;;4975235;28;20023;-74
2021/08/12 02:58:54;;;;;;;2.38;2.17;;;20.10;70.60;;;;;;4973773;28;20468;-76
2021/08/12 03:01:22;;;;;;;2.80;2.60;;;20.10;69.20;;;;;;4975172;28;20476;-75
2021/08/12 03:03:56;;;;;;;2.80;2.60;;;20.20;71.40;;;;;;4975203;28;20034;-74
2021/08/12 03:06:24;;;;;;;2.20;2.10;;;20.30;70.30;;;;;;4973606;28;20027;-74
2021/08/12 03:08:55;;;;;;;2.70;2.50;;;20.30;68.80;;;;;;4974872;28;20027;-74
2021/08/12 03:11:22;;;;;;;2.40;2.30;;;20.30;68.80;;;;;;4975280;28;20368;-74
2021/08/12 03:13:52;;;;;;;2.33;2.13;;;20.20;67.60;;;;;;4975008;28;20042;-74
2021/08/12 03:16:19;;;;;;;2.20;2.10;;;20.30;67.00;;;;;;4974713;28;20026;-73
2021/08/12 03:18:47;;;;;;;2.50;2.30;;;20.30;67.30;;;;;;4973730;28;20116;-75
2021/08/12 03:21:15;;;;;;;2.30;2.20;;;20.30;65.70;;;;;;4973662;28;20460;-75
2021/08/12 03:23:44;;;;;;;2.10;2.00;;;20.30;63.70;;;;;;4974897;28;20027;-75
2021/08/12 03:26:12;;;;;;;2.60;2.10;;;20.20;64.30;;;;;;4974818;28;20054;-77
2021/08/12 03:28:39;;;;;;;2.10;2.00;;;20.20;65.20;;;;;;4974539;28;20085;-75
2021/08/12 03:31:06;;;;;;;2.20;2.10;;;20.20;64.90;;;;;;4974911;28;20019;-78
2021/08/12 03:33:34;;;;;;;2.38;2.28;;;20.30;65.50;;;;;;4974694;28;20081;-75
2021/08/12 03:36:01;;;;;;;2.60;2.50;;;20.50;64.90;;;;;;4974656;28;20078;-76
2021/08/12 03:38:29;;;;;;;2.50;2.40;;;20.60;66.00;;;;;;4974677;28;20394;-77
2021/08/12 03:40:56;;;;;;;2.90;2.70;;;20.50;67.00;;;;;;4973190;28;20121;-76
2021/08/12 03:43:23;;;;;;;2.78;2.58;;;20.70;66.20;;;;;;4974495;28;20111;-76
2021/08/12 03:45:51;;;;;;;2.30;2.30;;;20.50;66.00;;;;;;4974511;28;20023;-77
2021/08/12 03:48:18;;;;;;;2.50;2.40;;;20.40;65.90;;;;;;4974328;28;20541;-76
2021/08/12 03:50:46;;;;;;;2.50;2.30;;;20.30;65.80;;;;;;4972986;28;20117;-77
2021/08/12 03:53:13;;;;;;;2.22;2.13;;;20.10;67.00;;;;;;4976036;28;20078;-78
2021/08/12 03:55:41;;;;;;;2.50;2.40;;;20.20;68.60;;;;;;4975083;28;20111;-80
2021/08/12 03:58:08;;;;;;;2.10;2.00;;;20.40;66.60;;;;;;4974403;28;20023;-78
2021/08/12 04:00:35;;;;;;;2.35;2.00;;;20.40;65.60;;;;;;4974348;28;20031;-78
2021/08/12 04:03:03;;;;;;;1.90;1.80;;;20.40;64.20;;;;;;4972788;28;20031;-78
2021/08/12 04:05:30;;;;;;;3.63;2.78;;;20.40;65.70;;;;;;4975062;28;20026;-79
2021/08/12 04:07:57;;;;;;;2.17;2.08;;;20.60;65.60;;;;;;4974336;28;20031;-82
2021/08/12 04:10:25;;;;;;;2.20;2.03;;;20.70;64.80;;;;;;4973127;28;20023;-80
2021/08/12 04:12:53;;;;;;;2.70;2.50;;;20.60;64.50;;;;;;4974125;28;20050;-82
2021/08/12 04:15:20;;;;;;;3.35;2.40;;;20.60;64.20;;;;;;4974596;28;20019;-82
2021/08/12 04:17:48;;;;;;;2.38;2.22;;;20.50;64.10;;;;;;4972902;28;20456;-81
2021/08/12 04:20:15;;;;;;;2.20;2.10;;;20.50;64.30;;;;;;4957425;28;20098;-82
2021/08/12 04:22:43;;;;;;;2.63;2.10;;;20.50;63.80;;;;;;4973048;28;20035;-82
2021/08/12 04:25:12;;;;;;;2.72;2.45;;;20.40;64.00;;;;;;4974864;28;20030;-83
2021/08/12 04:27:39;;;;;;;2.10;2.00;;;20.50;64.50;;;;;;4975473;28;20097;-82
2021/08/12 04:30:08;;;;;;;2.00;1.90;;;20.40;64.50;;;;;;4974643;28;20042;-80
2021/08/12 04:32:36;;;;;;;2.30;2.20;;;20.30;64.10;;;;;;4974239;28;20503;-81
2021/08/12 04:35:05;;;;;;;1.80;1.70;;;20.30;63.90;;;;;;4973180;28;20472;-81
2021/08/12 04:37:42;;;;;;;1.92;1.70;;;20.10;64.50;;;;;;4973356;28;20023;-81
2021/08/12 04:40:11;;;;;;;2.15;2.05;;;20.00;63.90;;;;;;4972782;28;20031;-78
2021/08/12 04:42:40;;;;;;;3.22;1.98;;;20.10;63.30;;;;;;4973097;28;20546;-82
2021/08/12 04:45:08;;;;;;;2.10;2.00;;;20.10;64.10;;;;;;4957275;28;20031;-82
2021/08/12 04:47:35;;;;;;;2.00;1.90;;;20.20;64.80;;;;;;4974395;28;20394;-83
2021/08/12 04:50:05;;;;;;;2.00;1.90;;;20.20;64.90;;;;;;4972656;28;20034;-82
2021/08/12 04:52:36;;;;;;;2.60;1.90;;;20.00;62.90;;;;;;4972772;28;20031;-82
2021/08/12 04:55:04;;;;;;;2.30;2.10;;;20.00;62.80;;;;;;4956665;28;20503;-81
2021/08/12 04:57:31;;;;;;;2.05;1.95;;;19.80;63.40;;;;;;4973765;28;20054;-81
2021/08/12 04:59:59;;;;;;;1.95;1.85;;;19.80;63.50;;;;;;4973965;28;20026;-81
2021/08/12 05:02:26;;;;;;;3.85;2.20;;;19.70;65.60;;;;;;4972737;28;20037;-80
2021/08/12 05:04:54;;;;;;;2.40;2.25;;;19.70;66.30;;;;;;4972720;28;20019;-80
2021/08/12 05:07:22;;;;;;;2.72;2.28;;;19.70;65.20;;;;;;4973783;28;20033;-82
2021/08/12 05:09:49;;;;;;;1.80;1.80;;;19.60;64.90;;;;;;4974515;28;20045;-83
2021/08/12 05:12:21;;;;;;;1.90;1.80;;;19.60;65.30;;;;;;4973871;28;20047;-80
2021/08/12 05:14:49;;;;;;;2.75;1.90;;;19.50;65.20;;;;;;4977754;28;20090;-81
2021/08/12 05:17:17;;;;;;;3.08;2.20;;;19.50;64.10;;;;;;4976118;28;20035;-81
2021/08/12 05:19:44;;;;;;;2.40;2.30;;;19.50;63.40;;;;;;4976753;28;20037;-82
2021/08/12 05:22:12;;;;;;;2.10;2.00;;;19.40;65.50;;;;;;4976752;28;20085;-82
2021/08/12 05:24:40;;;;;;;2.10;2.00;;;19.40;64.50;;;;;;4976954;28;20030;-79
2021/08/12 05:27:08;;;;;;;3.65;2.45;;;19.50;64.90;;;;;;4976711;28;20030;-81
2021/08/12 05:29:35;;;;;;;2.45;2.25;;;19.40;64.40;;;;;;4977300;28;20027;-80
2021/08/12 05:32:03;;;;;;;2.10;2.00;;;19.30;63.00;;;;;;4978339;28;20023;-80
2021/08/12 05:34:34;;;;;;;2.13;2.03;;;19.20;63.30;;;;;;4978138;28;20034;-81
2021/08/12 05:37:11;;;;;;;2.03;1.92;;;19.20;64.00;;;;;;4977671;28;20019;-81
2021/08/12 05:39:38;;;;;;;2.13;2.03;;;19.10;64.50;;;;;;4975836;28;20073;-81
2021/08/12 05:42:05;;;;;;;2.55;2.35;;;19.10;63.60;;;;;;4977111;28;20038;-81
2021/08/12 05:44:33;;;;;;;2.20;2.10;;;19.10;64.40;;;;;;4976970;28;20130;-77
2021/08/12 05:47:00;;;;;;;2.50;2.30;;;19.00;63.80;;;;;;4976760;28;20027;-80
2021/08/12 05:49:28;;;;;;;2.50;2.40;;;19.00;64.50;;;;;;4976898;28;20030;-80
2021/08/12 05:51:55;;;;;;;2.40;2.30;;;19.00;65.60;;;;;;4977476;28;20031;-80
2021/08/12 05:54:23;;;;;;;2.65;2.53;;;19.00;64.80;;;;;;4975886;28;20112;-80
2021/08/12 05:56:50;;;;;;;2.70;2.50;;;18.90;64.40;;;;;;4977109;28;20033;-75
2021/08/12 05:59:17;;;;;;;2.95;2.72;;;19.00;64.70;;;;;;4976903;28;20022;-75
2021/08/12 06:01:45;;;;;;;2.90;2.70;;;19.00;65.20;;;;;;4976504;28;20427;-77
2021/08/12 06:04:12;;;;;;;2.33;2.22;;;18.90;64.30;;;;;;4975148;28;20089;-78
2021/08/12 06:06:39;;;;;;;2.47;2.28;;;18.80;64.80;;;;;;4976792;28;20062;-79
2021/08/12 06:09:09;;;;;;;2.40;2.30;;;18.80;64.00;;;;;;4977775;28;20538;-80
2021/08/12 06:11:36;;;;;;;3.40;2.40;;;18.70;66.50;;;;;;4975818;28;20106;-76
2021/08/12 06:14:03;;;;;;;2.05;1.95;;;18.60;74.30;;;;;;4976398;28;20023;-78
2021/08/12 06:16:31;;;;;;;2.10;2.00;;;18.50;76.30;;;;;;4976086;28;20023;-76
2021/08/12 06:18:58;;;;;;;2.17;2.00;;;18.30;78.00;;;;;;4976578;28;20026;-74
2021/08/12 06:21:25;;;;;;;2.38;2.05;;;18.20;79.80;;;;;;4975934;28;20035;-76
2021/08/12 06:23:53;;;;;;;2.30;2.10;;;18.10;80.90;;;;;;4974529;28;20027;-75
2021/08/12 06:26:21;;;;;;;2.55;2.10;;;17.90;81.20;;;;;;4975825;28;20058;-78
2021/08/12 06:28:50;;;;;;;2.28;2.10;;;17.90;82.00;;;;;;4974511;28;20031;-77
2021/08/12 06:31:18;;;;;;;2.75;1.90;;;17.70;83.00;;;;;;4974329;28;20077;-75
2021/08/12 06:33:45;;;;;;;2.15;2.05;;;17.60;82.70;;;;;;4974355;28;20033;-76
2021/08/12 06:36:12;;;;;;;2.70;2.20;;;17.60;83.50;;;;;;4975519;28;20546;-75
2021/08/12 06:38:40;;;;;;;3.35;2.42;;;17.50;83.00;;;;;;4974435;28;20026;-75
2021/08/12 06:41:08;;;;;;;2.17;2.00;;;17.50;84.00;;;;;;4975789;28;20445;-78
2021/08/12 06:43:35;;;;;;;2.10;1.80;;;17.30;83.60;;;;;;4974970;28;20066;-76
2021/08/12 06:46:02;;;;;;;2.00;1.80;;;17.20;83.60;;;;;;4974718;28;20503;-77
2021/08/12 06:48:30;;;;;;;1.80;1.70;;;17.10;84.40;;;;;;4974078;28;20026;-75
2021/08/12 06:50:57;;;;;;;2.03;1.88;;;17.00;84.60;;;;;;4975538;28;20095;-74
2021/08/12 06:53:24;;;;;;;2.00;1.90;;;16.90;85.20;;;;;;4975533;28;20157;-75
2021/08/12 06:55:52;;;;;;;1.90;1.80;;;16.80;85.90;;;;;;4973900;28;20512;-74
2021/08/12 06:58:20;;;;;;;2.00;1.80;;;16.80;86.90;;;;;;4973844;28;20422;-74
2021/08/12 07:00:47;;;;;;;2.03;1.92;;;16.60;87.70;;;;;;4973767;28;20022;-72
2021/08/12 07:03:14;;;;;;;2.10;1.80;;;16.50;87.90;;;;;;4975162;28;20026;-73
2021/08/12 07:05:42;;;;;;;1.98;1.80;;;16.40;89.00;;;;;;4974975;28;20031;-73
2021/08/12 07:08:09;;;;;;;2.10;2.00;;;16.20;89.60;;;;;;4974989;28;20114;-73
2021/08/12 07:10:37;;;;;;;3.28;2.45;;;16.10;90.20;;;;;;4975061;28;20023;-74
2021/08/12 07:13:04;;;;;;;2.30;2.10;;;16.10;90.40;;;;;;4973336;28;20051;-74
2021/08/12 07:15:32;;;;;;;1.70;1.60;;;16.00;90.60;;;;;;4974914;28;20027;-73
2021/08/12 07:18:00;;;;;;;2.10;2.00;;;15.90;90.90;;;;;;4975052;28;20027;-73
2021/08/12 07:20:27;;;;;;;4.07;2.08;;;15.90;90.80;;;;;;4973289;28;20062;-72
2021/08/12 07:22:55;;;;;;;2.85;2.20;;;15.90;90.90;;;;;;4973526;28;20034;-72
2021/08/12 07:25:23;;;;;;;2.75;2.00;;;15.80;91.00;;;;;;4973248;28;20030;-72
2021/08/12 07:27:50;;;;;;;2.22;2.10;;;15.60;91.40;;;;;;4974388;28;20023;-73
2021/08/12 07:30:18;;;;;;;2.65;2.40;;;15.50;91.90;;;;;;4974575;28;20065;-73
2021/08/12 07:32:45;;;;;;;2.50;2.30;;;15.40;92.40;;;;;;4974813;28;20022;-74
2021/08/12 07:35:13;;;;;;;2.10;2.00;;;15.20;92.60;;;;;;4973414;28;20042;-72
2021/08/12 07:37:40;;;;;;;2.10;1.90;;;15.10;93.10;;;;;;4974129;28;20015;-74
2021/08/12 07:40:08;;;;;;;2.10;2.00;;;14.90;93.80;;;;;;4974472;28;20047;-74
2021/08/12 07:42:35;;;;;;;2.15;2.05;;;14.80;94.20;;;;;;4973049;28;20031;-73
2021/08/12 07:45:05;;;;;;;2.45;2.22;;;14.70;94.60;;;;;;4974396;28;20026;-73
2021/08/12 07:47:32;;;;;;;2.53;2.30;;;14.60;94.60;;;;;;4974366;28;20091;-76
2021/08/12 07:50:00;;;;;;;4.05;2.50;;;14.50;94.90;;;;;;4973408;28;20506;-77
2021/08/12 07:52:27;;;;;;;2.50;2.28;;;14.40;94.90;;;;;;4973092;28;20118;-74
2021/08/12 07:54:55;;;;;;;2.53;1.70;;;14.40;95.40;;;;;;4973192;28;20038;-76
2021/08/12 07:57:22;;;;;;;2.95;2.22;;;14.30;95.50;;;;;;4974325;28;20015;-79
2021/08/12 07:59:51;;;;;;;1.90;1.80;;;14.20;95.70;;;;;;4974370;28;20030;-77
2021/08/12 08:02:18;;;;;;;2.90;2.08;;;14.20;95.80;;;;;;4973442;28;20023;-78
2021/08/12 08:04:47;;;;;;;3.88;2.17;;;14.20;96.10;;;;;;4974429;28;20446;-80
2021/08/12 08:07:14;;;;;;;2.67;2.47;;;14.10;96.30;;;;;;4974522;28;20027;-79
2021/08/12 08:09:42;;;;;;;2.97;2.42;;;14.10;96.50;;;;;;4974221;28;20054;-79
2021/08/12 08:12:09;;;;;;;2.20;2.00;;;14.00;96.50;;;;;;4972837;28;20050;-80
2021/08/12 08:14:37;;;;;;;2.10;2.00;;;13.90;97.30;;;;;;4974379;28;20054;-80
2021/08/12 08:17:04;;;;;;;2.45;2.10;;;13.80;97.40;;;;;;4973031;28;20032;-80
2021/08/12 08:19:32;;;;;;;2.35;2.00;;;13.70;97.80;;;;;;4974187;28;20025;-80
2021/08/12 08:22:00;;;;;;;4.68;2.40;;;13.60;98.00;;;;;;4972980;28;20085;-79
2021/08/12 08:24:28;;;;;;;2.33;2.13;;;13.60;98.20;;;;;;4974243;28;20045;-80
2021/08/12 08:26:55;;;;;;;2.15;1.95;;;13.50;98.20;;;;;;4974260;28;20027;-80
2021/08/12 08:29:23;;;;;;;2.40;2.20;;;13.50;98.30;;;;;;4974030;28;20080;-80
2021/08/12 08:38:35;;;;;;;3.63;2.80;;;13.40;99.10;;;;;;4906847;28;20050;-80
2021/08/12 08:41:07;;;;;;;3.47;3.03;;;13.40;99.30;;;;;;4976449;28;20170;-80
2021/08/12 08:43:35;;;;;;;3.03;2.83;;;13.40;99.30;;;;;;4974795;28;20455;-80
2021/08/12 08:46:03;;;;;;;5.05;3.13;;;13.40;99.30;;;;;;4974308;28;20026;-80
2021/08/12 08:48:33;;;;;;;3.78;3.35;;;13.40;99.30;;;;;;4972854;28;20498;-80
2021/08/12 08:51:02;;;;;;;5.53;3.65;;;13.50;99.20;;;;;;4977134;28;20023;-80
2021/08/12 08:53:31;;;;;;;3.67;3.38;;;13.40;99.30;;;;;;4984458;28;20019;-81
2021/08/12 08:55:59;;;;;;;5.20;2.85;;;13.40;99.40;;;;;;4979043;28;20034;-79
2021/08/12 08:58:26;;;;;;;3.80;3.17;;;13.40;99.60;;;;;;4978280;28;20086;-81
2021/08/12 09:00:54;;;;;;;6.80;3.83;;;13.30;99.90;;;;;;4979598;28;20023;-81
2021/08/12 09:03:21;;;;;;;5.68;4.05;;;13.30;99.90;;;;;;4980758;28;20031;-81
2021/08/12 09:05:49;;;;;;;4.13;3.72;;;13.20;99.90;;;;;;4980506;28;20089;-79
2021/08/12 09:08:18;;;;;;;4.47;3.95;;;13.10;99.90;;;;;;4978521;28;20027;-79
2021/08/12 09:10:45;;;;;;;6.05;3.70;;;13.00;99.90;;;;;;4976900;28;20105;-80
2021/08/12 09:13:13;;;;;;;4.72;4.10;;;13.00;99.90;;;;;;4977761;28;20516;-79
2021/08/12 09:15:42;;;;;;;5.15;3.63;;;12.90;99.90;;;;;;4976424;28;20027;-79
2021/08/12 09:18:24;;;;;;;5.82;3.80;;;12.90;99.90;;;;;;4976361;28;20027;-79
2021/08/12 09:20:54;;;;;;;4.25;3.65;;;12.90;99.90;;;;;;4976620;28;20166;-80
2021/08/12 09:23:25;;;;;;;5.05;4.20;;;12.80;99.90;;;;;;4978122;28;20137;-83
2021/08/12 09:25:52;;;;;;;7.28;3.95;;;12.80;99.90;;;;;;4978211;28;20035;-82
2021/08/12 09:28:25;;;;;;;4.85;3.95;;;12.80;99.90;;;;;;4979254;28;20031;-81
2021/08/12 09:31:02;;;;;;;4.40;4.00;;;12.70;99.90;;;;;;4976524;28;20039;-77
2021/08/12 09:33:40;;;;;;;6.10;3.97;;;12.60;99.90;;;;;;4976756;28;20414;-77
2021/08/12 09:36:33;;;;;;;5.45;4.05;;;12.60;99.90;;;;;;4978995;28;20019;-82
2021/08/12 09:39:14;;;;;;;6.13;4.55;;;12.50;99.90;;;;;;4976553;28;20041;-77
2021/08/12 09:41:51;;;;;;;;;;;12.40;99.90;;;;;;4977655;28;20530;-78
2021/08/12 09:44:41;;;;;;;5.22;4.80;;;12.30;99.90;;;;;;4977011;28;19906;-78
2021/08/12 09:47:26;;;;;;;6.07;4.35;;;12.30;99.90;;;;;;4978032;28;20090;-78
2021/08/12 09:49:57;;;;;;;5.07;4.30;;;12.20;99.90;;;;;;4981136;28;20019;-80
2021/08/12 09:52:31;;;;;;;5.80;4.90;;;12.20;99.90;;;;;;4976881;28;20045;-78
2021/08/12 09:55:03;;;;;;;7.50;4.80;;;12.20;99.90;;;;;;4975495;28;20031;-81
2021/08/12 09:57:43;;;;;;;5.10;4.50;;;12.20;99.90;;;;;;4976332;28;20495;-81
2021/08/12 10:00:28;;;;;;;7.97;4.78;;;12.10;99.90;;;;;;4976955;28;20545;-81
2021/08/12 10:02:56;;;;;;;7.72;4.80;;;12.10;99.90;;;;;;4979936;28;20062;-81
2021/08/12 10:05:24;;;;;;;6.72;5.10;;;12.10;99.90;;;;;;4977637;28;20110;-80
2021/08/12 10:07:54;;;;;;;4.72;4.32;;;12.00;99.90;;;;;;4976615;28;20106;-82
2021/08/12 10:10:29;;;;;;;4.90;4.28;;;11.90;99.90;;;;;;4975677;28;20033;-81
2021/08/12 10:12:58;;;;;;;6.50;4.55;;;11.90;99.90;;;;;;4976568;28;20047;-81
2021/08/12 10:15:49;;;;;;;6.03;4.68;;;11.80;99.90;;;;;;4975723;28;20439;-80
2021/08/12 10:18:22;;;;;;;6.22;5.22;;;11.80;99.90;;;;;;4976605;28;20138;-82
2021/08/12 10:20:50;;;;;;;8.10;6.82;;;11.90;99.90;;;;;;4976341;28;20485;-84
2021/08/12 10:23:20;;;;;;;9.98;7.63;;;11.90;99.90;;;;;;4979902;28;20491;-83
2021/08/12 10:25:58;;;;;;;10.02;8.40;;;11.90;99.90;;;;;;4981742;28;20081;-80
2021/08/12 10:28:29;;;;;;;10.90;7.43;;;11.90;99.90;;;;;;4977956;28;20117;-81
2021/08/12 10:30:57;;;;;;;9.40;7.82;;;11.90;99.90;;;;;;4977265;28;20023;-81
2021/08/12 10:33:25;;;;;;;9.15;7.47;;;11.90;99.90;;;;;;4974753;28;20498;-82
2021/08/12 10:35:53;;;;;;;9.65;6.95;;;11.80;99.90;;;;;;4975170;28;20026;-81
2021/08/12 10:38:21;;;;;;;8.38;7.57;;;11.80;99.90;;;;;;4976506;28;20027;-82
2021/08/12 10:40:52;;;;;;;9.00;6.82;;;11.80;99.90;;;;;;4976438;28;20018;-82
2021/08/12 10:43:26;;;;;;;8.25;7.07;;;11.70;99.90;;;;;;4976227;28;20559;-82
2021/08/12 10:45:58;;;;;;;7.95;7.07;;;11.70;99.90;;;;;;4975007;28;20397;-82
2021/08/12 10:48:28;;;;;;;7.28;6.53;;;11.70;99.90;;;;;;4976081;28;20061;-82
2021/08/12 10:51:13;;;;;;;7.32;6.55;;;11.70;99.90;;;;;;4975128;28;20027;-82
2021/08/12 10:53:45;;;;;;;7.28;6.47;;;11.60;99.90;;;;;;4975483;28;20031;-84
2021/08/12 10:56:18;;;;;;;7.97;7.18;;;11.60;99.90;;;;;;4979050;28;20053;-81
2021/08/12 10:58:51;;;;;;;7.97;6.55;;;11.50;99.90;;;;;;4978388;28;20031;-82
2021/08/12 11:01:32;;;;;;;7.68;5.70;;;11.50;99.90;;;;;;4974585;28;20452;-81
2021/08/12 11:04:03;;;;;;;7.80;5.90;;;11.50;99.90;;;;;;4975514;28;20031;-81
2021/08/12 11:06:42;;;;;;;6.53;5.82;;;11.40;99.90;;;;;;4976605;28;20026;-84
2021/08/12 11:09:13;;;;;;;6.93;5.85;;;11.40;99.90;;;;;;4976158;28;20027;-82
2021/08/12 11:11:40;;;;;;;;;;;11.40;99.90;;;;;;4965343;28;20547;-83
2021/08/12 11:14:14;;;;;;;7.07;6.15;;;11.40;99.90;;;;;;4990506;28;19901;-82
2021/08/12 11:16:45;;;;;;;6.55;6.00;;;11.40;99.90;;;;;;4976403;28;20022;-82
2021/08/12 11:19:35;;;;;;;6.88;6.18;;;11.30;99.90;;;;;;4980363;28;20035;-82
2021/08/12 11:22:22;;;;;;;6.63;6.07;;;11.30;99.90;;;;;;4979178;28;20054;-81
2021/08/12 11:24:50;;;;;;;6.97;6.28;;;11.20;99.90;;;;;;4978559;28;20372;-82
2021/08/12 11:27:33;;;;;;;9.30;7.22;;;11.20;99.90;;;;;;4978226;28;20026;-82
2021/08/12 11:30:39;;;;;;;6.65;6.05;;;11.10;99.90;;;;;;4983987;28;20027;-82
2021/08/12 11:33:28;;;;;;;6.60;6.10;;;11.00;99.90;;;;;;4984139;28;20019;-82
2021/08/12 11:36:12;;;;;;;7.05;6.45;;;11.00;99.90;;;;;;4984349;28;20022;-82
2021/08/12 11:38:47;;;;;;;10.13;6.78;;;11.00;99.90;;;;;;4983732;28;20026;-83
2021/08/12 11:41:16;;;;;;;9.18;6.80;;;11.00;99.90;;;;;;4980746;28;20030;-83
2021/08/12 11:43:45;;;;;;;8.18;7.43;;;11.00;99.90;;;;;;4982964;28;20035;-82
2021/08/12 11:46:14;;;;;;;9.35;7.78;;;11.00;99.90;;;;;;4986159;28;20534;-83
2021/08/12 11:48:42;;;;;;;8.00;7.30;;;10.90;99.90;;;;;;4989458;28;20023;-82
2021/08/12 11:51:10;;;;;;;8.18;6.80;;;11.00;99.90;;;;;;4985943;28;20034;-82
2021/08/12 11:53:49;;;;;;;10.52;6.95;;;11.00;99.90;;;;;;4986600;28;20023;-80
2021/08/12 11:56:38;;;;;;;7.45;6.75;;;10.90;99.90;;;;;;4993355;28;20050;-81
2021/08/12 11:59:06;;;;;;;7.30;6.70;;;10.90;99.90;;;;;;4990454;28;20061;-81
2021/08/12 12:01:35;;;;;;;7.80;7.00;;;10.90;99.90;;;;;;4989144;28;20026;-81
2021/08/12 12:04:07;;;;;;;7.07;6.47;;;10.80;99.90;;;;;;4989861;28;20050;-80
2021/08/12 12:06:48;;;;;;;8.15;7.35;;;10.80;99.90;;;;;;4991371;28;20027;-81
2021/08/12 12:09:24;;;;;;;7.28;6.65;;;10.70;99.90;;;;;;4994238;28;20015;-81
2021/08/12 12:11:56;;;;;;;8.27;7.57;;;10.70;99.90;;;;;;4987863;28;20045;-82
2021/08/12 12:14:29;;;;;;;8.43;7.63;;;10.70;99.90;;;;;;4985606;28;20026;-82
2021/08/12 12:17:16;;;;;;;8.23;7.57;;;10.70;99.90;;;;;;4988057;28;19999;-81
2021/08/12 12:20:03;;;;;;;7.00;6.50;;;10.70;99.90;;;;;;4995082;28;20029;-82
2021/08/12 12:22:32;;;;;;;7.10;6.55;;;10.70;99.90;;;;;;4996107;28;20011;-80
2021/08/12 12:25:05;;;;;;;7.10;6.50;;;10.80;99.90;;;;;;5000703;28;20022;-82
2021/08/12 12:27:33;;;;;;;7.07;6.53;;;10.90;99.90;;;;;;5000125;28;20031;-81
2021/08/12 12:30:13;;;;;;;6.50;6.00;;;11.10;99.90;;;;;;4999837;28;20118;-81
2021/08/12 12:32:43;;;;;;;7.10;6.50;;;11.30;99.90;;;;;;4998337;28;20037;-82
2021/08/12 12:35:12;;;;;;;7.18;6.20;;;11.30;99.90;;;;;;4997865;28;20054;-82
2021/08/12 12:37:42;;;;;;;7.22;6.53;;;11.30;99.90;;;;;;4998639;28;20031;-79
2021/08/12 12:40:20;;;;;;;6.40;5.90;;;11.30;99.90;;;;;;4999811;28;20026;-81
2021/08/12 12:42:52;;;;;;;6.72;5.78;;;11.30;99.90;;;;;;4999536;28;20023;-80
2021/08/12 12:45:20;;;;;;;9.27;7.78;;;11.20;99.90;;;;;;4998938;28;20022;-80
2021/08/12 12:47:48;;;;;;;8.02;7.25;;;11.20;99.90;;;;;;4997774;28;20027;-81
2021/08/12 12:50:21;;;;;;;7.50;6.85;;;11.20;99.90;;;;;;4997704;28;20031;-81
2021/08/12 12:52:56;;;;;;;6.68;6.07;;;11.30;99.90;;;;;;4999601;28;20007;-82
2021/08/12 12:55:27;;;;;;;6.60;5.95;;;11.30;99.90;;;;;;4995808;28;20027;-80
2021/08/12 12:58:01;;;;;;;7.22;6.22;;;11.30;99.90;;;;;;4996405;28;20027;-81
2021/08/12 13:00:31;;;;;;;6.32;5.68;;;11.30;99.90;;;;;;4997501;28;20034;-81
2021/08/12 13:03:00;;;;;;;7.15;6.10;;;11.30;99.90;;;;;;4997974;28;20050;-81
2021/08/12 13:05:50;;;;;;;6.90;6.30;;;11.30;99.90;;;;;;4999679;28;20058;-81
2021/08/12 13:08:18;;;;;;;6.47;6.00;;;11.30;99.90;;;;;;4999014;28;20106;-80
2021/08/12 13:10:45;;;;;;;6.65;6.05;;;11.30;99.90;;;;;;4999811;28;20030;-81
2021/08/12 13:13:13;;;;;;;6.57;6.03;;;11.30;99.90;;;;;;4999534;28;20058;-81